Time;durP1;ratioP1;P1;durP2;ratioP2;P2;SDS_P1;SDS_P2;PMS_P1;PMS_P2;Temp;Humidity;BMP_temperature;BMP_pressure;BME280_temperature;BME280_humidity;BME280_pressure;Samples;Min_cycle;Max_cycle;Signal;HPM_P1;HPM_P2
2022/11/21 00:01:03;;;;;;;25.00;9.90;;;;;;;;;;5099382;28;20807;-67
2022/11/21 00:03:31;;;;;;;18.53;10.67;;;;;;;;;;5098983;28;20459;-68
2022/11/21 00:05:58;;;;;;;21.30;11.03;;;;;;;;;;5101764;28;20510;-68
2022/11/21 00:08:26;;;;;;;18.47;10.00;;;;;;;;;;5112256;28;21105;-67
2022/11/21 00:10:54;;;;;;;22.93;11.10;;;;;;;;;;5102348;28;20444;-68
2022/11/21 00:13:22;;;;;;;18.90;10.90;;;;;;;;;;5098201;28;20459;-68
2022/11/21 00:15:50;;;;;;;19.37;9.80;;;;;;;;;;5097002;28;20897;-67
2022/11/21 00:18:22;;;;;;;17.17;8.67;;;;;;;;;;5086872;28;20547;-69
2022/11/21 00:20:49;;;;;;;18.37;11.17;;;;;;;;;;5095262;28;20467;-69
2022/11/21 00:23:17;;;;;;;17.53;10.73;;;;;;;;;;5111063;28;20793;-68
2022/11/21 00:25:45;;;;;;;19.83;10.37;;;;;;;;;;5100052;28;20505;-69
2022/11/21 00:28:13;;;;;;;19.13;10.00;;;;;;;;;;5097932;28;20474;-68
2022/11/21 00:30:40;;;;;;;20.97;9.87;;;;;;;;;;5097759;28;20467;-68
2022/11/21 00:33:08;;;;;;;16.63;9.87;;;;;;;;;;5098757;28;21211;-68
2022/11/21 00:35:37;;;;;;;17.80;8.70;;;;;;;;;;5098390;28;20595;-68
2022/11/21 00:38:05;;;;;;;17.20;9.40;;;;;;;;;;5097952;28;20475;-68
2022/11/21 00:40:33;;;;;;;19.30;10.40;;;;;;;;;;5097263;28;20742;-68
2022/11/21 00:43:01;;;;;;;18.97;9.83;;;;;;;;;;5106045;28;20871;-68
2022/11/21 00:45:28;;;;;;;21.20;9.77;;;;;;;;;;5118058;28;20483;-68
2022/11/21 00:47:57;;;;;;;21.40;9.67;;;;;;;;;;5118396;28;20530;-68
2022/11/21 00:50:25;;;;;;;14.77;8.07;;;;;;;;;;5117427;28;20855;-69
2022/11/21 00:52:57;;;;;;;14.47;8.43;;;;;;;;;;5118300;28;20552;-68
2022/11/21 00:55:24;;;;;;;14.63;8.83;;;;;;;;;;5118559;28;20761;-69
2022/11/21 00:57:52;;;;;;;18.93;10.30;;;;;;;;;;5117215;28;20462;-69
2022/11/21 01:00:20;;;;;;;17.17;10.07;;;;;;;;;;5118357;28;20541;-68
2022/11/21 01:02:48;;;;;;;29.13;11.93;;;;;;;;;;5117918;28;20522;-68
2022/11/21 01:05:15;;;;;;;15.63;9.60;;;;;;;;;;5116929;28;20894;-69
2022/11/21 01:07:43;;;;;;;20.70;10.10;;;;;;;;;;5115667;28;20447;-68
2022/11/21 01:10:12;;;;;;;16.80;10.00;;;;;;;;;;5115855;28;20499;-68
2022/11/21 01:12:40;;;;;;;22.17;11.00;;;;;;;;;;5117174;28;20751;-68
2022/11/21 01:15:08;;;;;;;16.57;8.10;;;;;;;;;;5116631;28;20569;-68
2022/11/21 01:17:36;;;;;;;18.43;9.80;;;;;;;;;;5117428;28;20651;-68
2022/11/21 01:20:04;;;;;;;12.33;6.37;;;;;;;;;;5113068;28;20487;-68
2022/11/21 01:22:32;;;;;;;23.30;9.60;;;;;;;;;;5096970;28;20464;-68
2022/11/21 01:24:59;;;;;;;25.93;10.97;;;;;;;;;;5096295;28;20466;-68
2022/11/21 01:27:31;;;;;;;22.80;11.47;;;;;;;;;;5096474;28;20684;-68
2022/11/21 01:29:59;;;;;;;11.47;7.67;;;;;;;;;;5096707;28;20554;-69
2022/11/21 01:32:27;;;;;;;21.47;10.60;;;;;;;;;;5095288;28;20463;-68
2022/11/21 01:34:54;;;;;;;16.40;9.00;;;;;;;;;;5096717;28;20482;-68
2022/11/21 01:37:22;;;;;;;22.33;11.37;;;;;;;;;;5108352;28;20737;-68
2022/11/21 01:39:49;;;;;;;20.23;8.73;;;;;;;;;;5116776;28;20454;-68
2022/11/21 01:42:17;;;;;;;25.77;10.17;;;;;;;;;;5116808;28;20490;-68
2022/11/21 01:44:52;;;;;;;18.27;9.53;;;;;;;;;;5117301;28;20769;-68
2022/11/21 01:47:29;;;;;;;13.90;8.17;;;;;;;;;;5116819;28;20489;-68
2022/11/21 01:49:56;;;;;;;19.20;10.63;;;;;;;;;;5117064;28;20516;-68
2022/11/21 01:52:27;;;;;;;16.70;9.40;;;;;;;;;;5117160;28;20459;-68
2022/11/21 01:54:56;;;;;;;14.47;7.13;;;;;;;;;;5103595;28;20501;-68
2022/11/21 01:57:27;;;;;;;23.40;11.00;;;;;;;;;;5079128;28;20872;-68
2022/11/21 01:59:59;;;;;;;16.33;11.00;;;;;;;;;;5095481;28;20526;-68
2022/11/21 02:02:30;;;;;;;18.47;8.97;;;;;;;;;;5094953;28;20738;-68
2022/11/21 02:04:58;;;;;;;24.30;12.03;;;;;;;;;;5095250;28;20557;-68
2022/11/21 02:07:27;;;;;;;17.83;10.23;;;;;;;;;;5095835;28;20487;-68
2022/11/21 02:09:56;;;;;;;29.93;10.83;;;;;;;;;;5095914;28;20444;-68
2022/11/21 02:12:26;;;;;;;22.00;8.83;;;;;;;;;;5095378;28;20578;-68
2022/11/21 02:14:54;;;;;;;20.10;12.00;;;;;;;;;;5095055;28;20522;-68
2022/11/21 02:17:23;;;;;;;17.27;8.40;;;;;;;;;;5102410;28;20463;-68
2022/11/21 02:19:54;;;;;;;18.30;9.87;;;;;;;;;;5115870;28;21096;-68
2022/11/21 02:22:27;;;;;;;17.07;9.47;;;;;;;;;;5117004;28;20470;-68
2022/11/21 02:25:16;;;;;;;22.80;8.90;;;;;;;;;;5115866;28;20842;-68
2022/11/21 02:27:46;;;;;;;28.77;12.60;;;;;;;;;;5108728;28;20474;-68
2022/11/21 02:30:14;;;;;;;21.63;9.50;;;;;;;;;;5116016;28;20553;-68
2022/11/21 02:32:45;;;;;;;19.03;8.10;;;;;;;;;;5115230;28;20494;-68
2022/11/21 02:35:13;;;;;;;21.53;10.17;;;;;;;;;;5115407;28;20821;-68
2022/11/21 02:37:42;;;;;;;25.60;11.80;;;;;;;;;;5115583;28;20451;-68
2022/11/21 02:40:11;;;;;;;23.03;11.07;;;;;;;;;;5098509;28;20463;-69
2022/11/21 02:42:41;;;;;;;21.23;9.87;;;;;;;;;;5108669;28;20451;-68
2022/11/21 02:45:15;;;;;;;20.37;9.47;;;;;;;;;;5095751;28;20546;-68
2022/11/21 02:47:43;;;;;;;25.97;12.30;;;;;;;;;;5095023;28;20578;-68
2022/11/21 02:50:13;;;;;;;18.13;9.90;;;;;;;;;;5095277;28;20469;-68
2022/11/21 02:52:41;;;;;;;22.63;10.10;;;;;;;;;;5095194;28;20736;-68
2022/11/21 02:55:10;;;;;;;20.37;10.43;;;;;;;;;;5094977;28;20464;-68
2022/11/21 02:57:38;;;;;;;26.20;11.10;;;;;;;;;;5095379;28;20456;-68
2022/11/21 03:00:07;;;;;;;18.17;9.07;;;;;;;;;;5093369;28;20466;-68
2022/11/21 03:02:36;;;;;;;22.60;12.30;;;;;;;;;;5094467;28;20457;-68
2022/11/21 03:05:04;;;;;;;22.97;10.30;;;;;;;;;;5095162;28;20553;-68
2022/11/21 03:07:32;;;;;;;19.90;8.77;;;;;;;;;;5096081;28;20803;-68
2022/11/21 03:09:59;;;;;;;19.87;10.60;;;;;;;;;;5094891;28;20885;-69
2022/11/21 03:12:27;;;;;;;22.57;11.70;;;;;;;;;;5095258;28;20459;-68
2022/11/21 03:14:55;;;;;;;23.43;11.20;;;;;;;;;;5094690;28;20455;-68
2022/11/21 03:17:25;;;;;;;21.20;11.77;;;;;;;;;;5094854;28;20463;-68
2022/11/21 03:19:54;;;;;;;24.77;12.70;;;;;;;;;;5104865;28;20886;-68
2022/11/21 03:22:22;;;;;;;23.83;11.83;;;;;;;;;;5115113;28;20537;-68
2022/11/21 03:24:52;;;;;;;23.23;12.07;;;;;;;;;;5114323;28;20462;-68
2022/11/21 03:27:20;;;;;;;25.97;9.90;;;;;;;;;;5114204;28;20497;-68
2022/11/21 03:29:48;;;;;;;20.00;9.60;;;;;;;;;;5114301;28;20463;-68
2022/11/21 03:32:15;;;;;;;24.60;10.80;;;;;;;;;;5113711;28;20455;-68
2022/11/21 03:34:43;;;;;;;22.93;11.10;;;;;;;;;;5114354;28;20458;-68
2022/11/21 03:37:12;;;;;;;21.00;10.27;;;;;;;;;;5112325;28;20462;-68
2022/11/21 03:39:40;;;;;;;18.70;10.93;;;;;;;;;;5114459;28;20459;-68
2022/11/21 03:42:07;;;;;;;20.50;9.87;;;;;;;;;;5114508;28;21072;-69
2022/11/21 03:44:35;;;;;;;16.83;9.47;;;;;;;;;;5114344;28;20473;-68
2022/11/21 03:47:03;;;;;;;23.63;12.60;;;;;;;;;;5115017;28;20577;-68
2022/11/21 03:49:31;;;;;;;22.80;11.93;;;;;;;;;;5115289;28;20540;-68
2022/11/21 03:51:58;;;;;;;21.87;10.53;;;;;;;;;;5113063;28;20529;-68
2022/11/21 03:54:27;;;;;;;20.83;10.73;;;;;;;;;;5097902;28;20554;-68
2022/11/21 03:56:55;;;;;;;16.60;12.00;;;;;;;;;;5114758;28;20459;-68
2022/11/21 03:59:23;;;;;;;21.30;11.43;;;;;;;;;;5114562;28;20498;-68
2022/11/21 04:01:50;;;;;;;19.40;10.80;;;;;;;;;;5098228;28;20455;-68
2022/11/21 04:04:18;;;;;;;20.50;9.50;;;;;;;;;;5095866;28;20468;-68
2022/11/21 04:06:46;;;;;;;21.60;11.33;;;;;;;;;;5098235;28;20559;-68
2022/11/21 04:09:14;;;;;;;22.60;11.23;;;;;;;;;;5114052;28;20470;-68
2022/11/21 04:11:43;;;;;;;22.00;10.00;;;;;;;;;;5114130;28;20937;-68
2022/11/21 04:14:11;;;;;;;21.47;11.77;;;;;;;;;;5114687;28;20555;-68
2022/11/21 04:16:38;;;;;;;22.53;11.27;;;;;;;;;;5111848;28;20846;-68
2022/11/21 04:19:06;;;;;;;21.00;10.77;;;;;;;;;;5113738;28;20517;-68
2022/11/21 04:21:34;;;;;;;26.33;12.07;;;;;;;;;;5113860;28;20546;-68
2022/11/21 04:24:01;;;;;;;23.10;11.40;;;;;;;;;;5114031;28;20960;-68
2022/11/21 04:26:29;;;;;;;23.30;11.40;;;;;;;;;;5104397;28;20539;-68
2022/11/21 04:28:58;;;;;;;23.63;11.60;;;;;;;;;;5094044;28;20515;-68
2022/11/21 04:31:26;;;;;;;19.80;9.60;;;;;;;;;;5093484;28;20464;-68
2022/11/21 04:33:54;;;;;;;23.90;10.73;;;;;;;;;;5093813;28;20464;-68
2022/11/21 04:36:21;;;;;;;19.50;12.63;;;;;;;;;;5093599;28;20463;-69
2022/11/21 04:38:49;;;;;;;30.60;11.60;;;;;;;;;;5093642;28;20539;-68
2022/11/21 04:41:16;;;;;;;24.83;12.13;;;;;;;;;;5094367;28;20467;-68
2022/11/21 04:43:44;;;;;;;23.20;10.13;;;;;;;;;;5092564;28;20452;-68
2022/11/21 04:46:13;;;;;;;24.00;9.07;;;;;;;;;;5080919;28;20464;-68
2022/11/21 04:48:41;;;;;;;23.27;11.77;;;;;;;;;;5097638;28;20538;-68
2022/11/21 04:51:10;;;;;;;18.40;9.20;;;;;;;;;;5102334;28;20536;-69
2022/11/21 04:53:38;;;;;;;15.03;6.73;;;;;;;;;;5117647;28;20542;-69
2022/11/21 04:56:08;;;;;;;20.10;10.43;;;;;;;;;;5117782;28;20508;-68
2022/11/21 04:58:36;;;;;;;27.90;8.50;;;;;;;;;;5117828;28;20454;-68
2022/11/21 05:01:08;;;;;;;17.17;8.90;;;;;;;;;;5117082;28;20978;-68
2022/11/21 05:03:37;;;;;;;10.27;6.87;;;;;;;;;;5117340;28;20461;-68
2022/11/21 05:06:05;;;;;;;19.80;11.20;;;;;;;;;;5097034;28;20473;-68
2022/11/21 05:08:32;;;;;;;16.47;6.77;;;;;;;;;;5096335;28;20487;-68
2022/11/21 05:13:45;;;;;;;16.60;7.47;;;;;;;;;;5119038;28;20496;-68
2022/11/21 05:16:13;;;;;;;14.07;8.93;;;;;;;;;;5103004;28;20740;-68
2022/11/21 05:18:42;;;;;;;19.60;8.83;;;;;;;;;;5096646;28;20977;-68
2022/11/21 05:21:10;;;;;;;17.60;9.70;;;;;;;;;;5079737;28;20537;-68
2022/11/21 05:23:38;;;;;;;12.03;7.97;;;;;;;;;;5078347;28;20555;-68
2022/11/21 05:26:05;;;;;;;19.00;10.40;;;;;;;;;;5078687;28;20486;-68
2022/11/21 05:28:33;;;;;;;12.07;6.50;;;;;;;;;;5084831;28;20503;-68
2022/11/21 05:31:03;;;;;;;10.87;6.10;;;;;;;;;;5095640;28;20469;-68
2022/11/21 05:33:50;;;;;;;14.87;7.90;;;;;;;;;;5096466;28;20763;-68
2022/11/21 05:36:19;;;;;;;22.87;10.97;;;;;;;;;;5095483;28;20479;-68
2022/11/21 05:38:47;;;;;;;29.50;11.20;;;;;;;;;;5096499;28;20484;-67
2022/11/21 05:41:15;;;;;;;17.60;7.73;;;;;;;;;;5076892;28;20476;-68
2022/11/21 05:43:44;;;;;;;18.70;9.30;;;;;;;;;;5086999;28;20575;-67
2022/11/21 05:46:15;;;;;;;18.77;9.83;;;;;;;;;;5096375;28;20741;-68
2022/11/21 05:48:43;;;;;;;21.93;8.77;;;;;;;;;;5096583;28;20579;-68
2022/11/21 05:51:11;;;;;;;22.93;11.27;;;;;;;;;;5094123;28;20456;-68
2022/11/21 05:53:40;;;;;;;24.33;11.10;;;;;;;;;;5098574;28;20456;-68
2022/11/21 05:56:09;;;;;;;14.23;7.23;;;;;;;;;;5104720;28;20454;-68
2022/11/21 05:58:37;;;;;;;20.87;10.57;;;;;;;;;;5096898;28;20877;-68
2022/11/21 06:01:05;;;;;;;22.50;9.23;;;;;;;;;;5088901;28;20561;-68
2022/11/21 06:03:33;;;;;;;17.17;10.10;;;;;;;;;;5076676;28;20756;-68
2022/11/21 06:06:04;;;;;;;16.20;9.60;;;;;;;;;;5075664;28;20475;-68
2022/11/21 06:08:33;;;;;;;20.70;9.70;;;;;;;;;;5074722;28;20527;-68
2022/11/21 06:11:06;;;;;;;13.90;8.00;;;;;;;;;;5091260;28;20443;-68
2022/11/21 06:13:34;;;;;;;19.60;12.87;;;;;;;;;;5093751;28;20528;-68
2022/11/21 06:16:02;;;;;;;16.13;7.17;;;;;;;;;;5087063;28;20540;-68
2022/11/21 06:18:31;;;;;;;18.57;10.77;;;;;;;;;;5079759;28;20456;-68
2022/11/21 06:21:01;;;;;;;15.67;8.47;;;;;;;;;;5081360;28;20479;-68
2022/11/21 06:23:29;;;;;;;7.17;4.07;;;;;;;;;;5083321;28;20466;-67
2022/11/21 06:25:59;;;;;;;12.10;5.60;;;;;;;;;;5080170;28;20497;-69
2022/11/21 06:28:31;;;;;;;14.77;7.43;;;;;;;;;;5083550;28;20492;-68
2022/11/21 06:31:02;;;;;;;18.23;9.17;;;;;;;;;;5081678;28;20778;-68
2022/11/21 06:33:30;;;;;;;17.93;7.60;;;;;;;;;;5086257;28;20922;-67
2022/11/21 06:35:58;;;;;;;13.13;9.37;;;;;;;;;;5079628;28;20471;-67
2022/11/21 06:38:26;;;;;;;21.50;10.83;;;;;;;;;;5075139;28;20462;-67
2022/11/21 06:40:53;;;;;;;26.97;9.97;;;;;;;;;;5078214;28;20891;-69
2022/11/21 06:43:21;;;;;;;24.60;7.87;;;;;;;;;;5082540;28;20461;-67
2022/11/21 06:45:50;;;;;;;19.30;9.47;;;;;;;;;;5077554;28;22415;-67
2022/11/21 06:48:18;;;;;;;19.73;9.00;;;;;;;;;;5078724;28;20494;-67
2022/11/21 06:50:46;;;;;;;33.23;11.27;;;;;;;;;;5077958;28;20460;-68
2022/11/21 06:53:14;;;;;;;21.77;9.90;;;;;;;;;;5078651;28;20488;-67
2022/11/21 06:55:42;;;;;;;18.80;9.00;;;;;;;;;;5077715;28;20895;-68
2022/11/21 06:58:12;;;;;;;14.70;9.60;;;;;;;;;;5079893;28;20453;-68
2022/11/21 07:00:43;;;;;;;19.33;10.50;;;;;;;;;;5080053;28;20471;-68
2022/11/21 07:03:12;;;;;;;17.87;10.70;;;;;;;;;;5076007;28;20451;-68
2022/11/21 07:05:41;;;;;;;18.63;7.60;;;;;;;;;;5079871;28;20500;-67
2022/11/21 07:08:08;;;;;;;22.27;10.17;;;;;;;;;;5076723;28;20486;-68
2022/11/21 07:10:36;;;;;;;19.40;10.33;;;;;;;;;;5079447;28;20475;-68
2022/11/21 07:13:23;;;;;;;27.20;13.13;;;;;;;;;;5079596;28;20468;-68
2022/11/21 07:15:52;;;;;;;20.57;9.80;;;;;;;;;;5077462;28;20467;-67
2022/11/21 07:18:24;;;;;;;18.57;10.80;;;;;;;;;;5078733;28;20470;-67
2022/11/21 07:20:52;;;;;;;22.07;9.60;;;;;;;;;;5079313;28;20729;-68
2022/11/21 07:23:19;;;;;;;22.13;10.20;;;;;;;;;;5077664;28;20905;-68
2022/11/21 07:25:47;;;;;;;23.07;10.93;;;;;;;;;;5074134;28;20468;-67
2022/11/21 07:28:15;;;;;;;26.20;10.77;;;;;;;;;;5058896;28;21358;-67
2022/11/21 07:30:43;;;;;;;18.03;8.63;;;;;;;;;;5076689;28;20562;-67
2022/11/21 07:33:12;;;;;;;16.47;8.03;;;;;;;;;;5077024;28;20456;-68
2022/11/21 07:35:44;;;;;;;20.93;8.47;;;;;;;;;;5078573;28;20459;-68
2022/11/21 07:38:16;;;;;;;13.53;7.67;;;;;;;;;;5078563;28;20495;-67
2022/11/21 07:40:52;;;;;;;14.63;9.43;;;;;;;;;;5080292;28;20532;-67
2022/11/21 07:43:20;;;;;;;18.77;8.07;;;;;;;;;;5082186;28;20554;-67
2022/11/21 07:45:54;;;;;;;16.60;9.07;;;;;;;;;;5080008;28;20477;-67
2022/11/21 07:48:25;;;;;;;15.83;8.77;;;;;;;;;;5082797;28;20467;-68
2022/11/21 07:50:57;;;;;;;21.23;8.17;;;;;;;;;;5081805;28;20973;-68
2022/11/21 07:53:25;;;;;;;18.73;9.37;;;;;;;;;;5078607;28;20566;-68
2022/11/21 07:55:58;;;;;;;24.57;10.00;;;;;;;;;;5077967;28;20474;-68
2022/11/21 07:58:34;;;;;;;20.37;11.30;;;;;;;;;;5079102;28;20471;-69
2022/11/21 08:01:05;;;;;;;18.03;10.20;;;;;;;;;;5089957;28;20463;-69
2022/11/21 08:03:37;;;;;;;18.90;10.40;;;;;;;;;;5094925;28;20478;-68
2022/11/21 08:06:06;;;;;;;20.20;10.77;;;;;;;;;;5085349;28;20947;-69
2022/11/21 08:08:34;;;;;;;24.10;10.37;;;;;;;;;;5088880;28;20479;-69
2022/11/21 08:11:13;;;;;;;19.80;8.67;;;;;;;;;;5092171;28;20562;-69
2022/11/21 08:13:46;;;;;;;15.97;7.93;;;;;;;;;;5090046;28;20486;-69
2022/11/21 08:16:14;;;;;;;18.70;11.10;;;;;;;;;;5090653;28;20461;-69
2022/11/21 08:18:45;;;;;;;18.17;8.50;;;;;;;;;;5101346;28;20498;-69
2022/11/21 08:21:16;;;;;;;12.20;5.77;;;;;;;;;;5094261;28;20471;-69
2022/11/21 08:23:47;;;;;;;20.83;10.87;;;;;;;;;;5093808;28;20459;-69
2022/11/21 08:26:15;;;;;;;10.97;6.60;;;;;;;;;;5094288;28;20470;-68
2022/11/21 08:28:43;;;;;;;8.33;5.67;;;;;;;;;;5089266;28;20487;-69
2022/11/21 08:31:10;;;;;;;15.87;9.30;;;;;;;;;;5079462;28;20555;-69
2022/11/21 08:33:40;;;;;;;29.43;13.37;;;;;;;;;;5081774;28;20495;-69
2022/11/21 08:36:08;;;;;;;16.83;8.50;;;;;;;;;;5081358;28;20573;-68
2022/11/21 08:38:37;;;;;;;19.17;9.40;;;;;;;;;;5084810;28;20464;-68
2022/11/21 08:43:52;;;;;;;13.37;6.83;;;;;;;;;;5082769;28;20926;-68
2022/11/21 08:46:26;;;;;;;12.83;7.60;;;;;;;;;;5083170;28;20799;-69
2022/11/21 08:48:57;;;;;;;22.57;9.93;;;;;;;;;;5081169;28;20479;-68
2022/11/21 08:51:29;;;;;;;16.77;11.00;;;;;;;;;;5080835;28;20456;-68
2022/11/21 08:54:03;;;;;;;18.40;9.50;;;;;;;;;;5078803;28;20460;-69
2022/11/21 08:56:33;;;;;;;12.30;4.87;;;;;;;;;;5080838;28;20469;-68
2022/11/21 08:59:03;;;;;;;11.87;7.10;;;;;;;;;;5084442;28;21013;-68
2022/11/21 09:01:35;;;;;;;19.37;9.00;;;;;;;;;;5085709;28;20463;-68
2022/11/21 09:04:15;;;;;;;17.10;9.80;;;;;;;;;;5083148;28;20750;-69
2022/11/21 09:06:42;;;;;;;12.10;8.03;;;;;;;;;;5081959;28;20456;-68
2022/11/21 09:09:12;;;;;;;18.47;8.20;;;;;;;;;;5080195;28;20532;-68
2022/11/21 09:11:42;;;;;;;19.43;8.17;;;;;;;;;;5078890;28;20452;-69
2022/11/21 09:19:41;;;;;;;18.70;9.20;;;;;;;;;;5081154;28;20574;-69
2022/11/21 09:22:09;;;;;;;17.87;10.13;;;;;;;;;;5080070;28;20495;-68
2022/11/21 09:24:41;;;;;;;20.43;10.63;;;;;;;;;;5080989;28;20575;-69
2022/11/21 09:27:09;;;;;;;17.87;11.20;;;;;;;;;;5079919;28;20451;-69
2022/11/21 09:29:48;;;;;;;23.93;10.97;;;;;;;;;;5080607;28;20480;-69
2022/11/21 09:32:24;;;;;;;15.20;9.53;;;;;;;;;;5083077;28;20475;-68
2022/11/21 09:34:52;;;;;;;18.77;10.40;;;;;;;;;;5080306;28;20561;-69
2022/11/21 09:37:21;;;;;;;14.63;8.40;;;;;;;;;;5082212;28;20447;-69
2022/11/21 09:39:53;;;;;;;13.40;7.20;;;;;;;;;;5079992;28;20549;-68
2022/11/21 09:42:48;;;;;;;16.50;8.20;;;;;;;;;;5082635;28;20499;-68
2022/11/21 09:45:29;;;;;;;15.50;7.97;;;;;;;;;;5080042;28;20463;-68
2022/11/21 09:47:57;;;;;;;17.37;8.07;;;;;;;;;;5068525;28;20487;-68
2022/11/21 09:50:36;;;;;;;20.50;11.10;;;;;;;;;;5084829;28;20495;-70
2022/11/21 09:53:20;;;;;;;15.20;8.57;;;;;;;;;;5084992;28;21904;-69
2022/11/21 09:56:07;;;;;;;17.83;8.40;;;;;;;;;;5083555;28;20865;-71
2022/11/21 09:58:46;;;;;;;9.43;7.20;;;;;;;;;;5080192;28;20467;-70
2022/11/21 10:01:15;;;;;;;15.57;7.37;;;;;;;;;;5080356;28;20460;-69
2022/11/21 10:03:46;;;;;;;13.90;8.07;;;;;;;;;;5080823;28;20452;-70
2022/11/21 10:06:21;;;;;;;15.87;9.13;;;;;;;;;;5089862;28;21078;-69
2022/11/21 10:08:56;;;;;;;11.70;6.30;;;;;;;;;;5086315;28;20490;-70
2022/11/21 10:11:31;;;;;;;17.50;9.33;;;;;;;;;;5084265;28;20471;-71
2022/11/21 10:14:06;;;;;;;17.13;9.30;;;;;;;;;;5092527;28;20528;-70
2022/11/21 10:16:38;;;;;;;15.43;7.27;;;;;;;;;;5092453;28;20898;-70
2022/11/21 10:19:26;;;;;;;16.53;9.77;;;;;;;;;;5092040;28;20575;-69
2022/11/21 10:22:03;;;;;;;20.80;9.97;;;;;;;;;;5089212;28;20459;-69
2022/11/21 10:24:37;;;;;;;16.23;8.77;;;;;;;;;;5083263;28;20741;-68
2022/11/21 10:27:12;;;;;;;20.47;11.40;;;;;;;;;;5083187;28;20768;-68
2022/11/21 10:29:49;;;;;;;36.23;10.57;;;;;;;;;;5093601;28;21115;-69
2022/11/21 10:32:23;;;;;;;16.10;9.30;;;;;;;;;;5085806;28;20455;-69
2022/11/21 10:35:00;;;;;;;17.03;10.17;;;;;;;;;;5088928;28;20498;-69
2022/11/21 10:37:33;;;;;;;12.30;8.00;;;;;;;;;;5090520;28;20490;-69
2022/11/21 10:40:18;;;;;;;14.70;7.90;;;;;;;;;;5093750;28;20481;-70
2022/11/21 10:42:54;;;;;;;34.97;17.93;;;;;;;;;;5092518;28;20455;-69
2022/11/21 10:45:26;;;;;;;17.40;8.90;;;;;;;;;;5085242;28;20471;-69
2022/11/21 10:47:56;;;;;;;10.50;7.20;;;;;;;;;;5083813;28;20467;-69
2022/11/21 10:50:42;;;;;;;16.93;8.27;;;;;;;;;;5099448;28;20455;-69
2022/11/21 10:56:09;;;;;;;13.70;8.63;;;;;;;;;;5079124;28;20474;-69
2022/11/21 10:59:01;;;;;;;14.40;9.90;;;;;;;;;;5086445;28;20475;-71
2022/11/21 11:01:40;;;;;;;18.10;9.03;;;;;;;;;;5092006;28;20497;-70
2022/11/21 11:04:14;;;;;;;16.43;6.23;;;;;;;;;;5085528;28;20462;-69
2022/11/21 11:07:09;;;;;;;11.63;7.10;;;;;;;;;;5086438;28;20479;-71
2022/11/21 11:10:34;;;;;;;14.63;8.30;;;;;;;;;;5073255;28;20556;-72
2022/11/21 11:16:19;;;;;;;12.13;5.60;;;;;;;;;;5084389;28;20525;-71
2022/11/21 11:19:18;;;;;;;11.10;6.80;;;;;;;;;;5081133;28;20503;-72
2022/11/21 11:22:03;;;;;;;12.37;5.80;;;;;;;;;;5091237;28;20511;-70
2022/11/21 11:24:31;;;;;;;10.77;6.63;;;;;;;;;;5064178;28;20801;-70
2022/11/21 11:27:03;;;;;;;10.90;6.80;;;;;;;;;;5080162;28;20567;-70
2022/11/21 11:29:34;;;;;;;8.87;6.30;;;;;;;;;;5089402;28;20495;-71
2022/11/21 11:32:26;;;;;;;13.70;8.77;;;;;;;;;;5092668;28;20468;-70
2022/11/21 11:35:10;;;;;;;16.23;8.03;;;;;;;;;;5086874;28;20487;-70
2022/11/21 11:37:43;;;;;;;12.70;6.43;;;;;;;;;;5083384;28;20546;-69
2022/11/21 11:40:24;;;;;;;11.80;7.43;;;;;;;;;;5080684;28;20534;-70
2022/11/21 11:49:04;;;;;;;11.40;7.03;;;;;;;;;;5085070;28;20574;-70
2022/11/21 11:51:47;;;;;;;15.47;7.37;;;;;;;;;;5089193;28;20867;-70
2022/11/21 11:54:23;;;;;;;13.67;6.80;;;;;;;;;;5084136;28;20479;-70
2022/11/21 11:56:52;;;;;;;8.63;4.87;;;;;;;;;;5082920;28;20517;-70
2022/11/21 11:59:22;;;;;;;7.33;6.10;;;;;;;;;;5089769;28;20466;-70
2022/11/21 12:01:54;;;;;;;9.10;5.40;;;;;;;;;;5096666;28;20879;-71
2022/11/21 12:04:26;;;;;;;7.13;4.87;;;;;;;;;;5095996;28;20810;-70
2022/11/21 12:06:58;;;;;;;9.63;4.80;;;;;;;;;;5083844;28;20467;-72
2022/11/21 12:09:39;;;;;;;8.33;5.83;;;;;;;;;;5095072;28;20490;-71
2022/11/21 12:17:52;;;;;;;6.10;4.13;;;;;;;;;;5090974;28;21085;-70
2022/11/21 12:20:24;;;;;;;8.50;4.73;;;;;;;;;;5083175;28;20554;-69
2022/11/21 12:22:53;;;;;;;7.77;4.07;;;;;;;;;;5086277;28;20447;-69
2022/11/21 12:25:22;;;;;;;8.87;6.20;;;;;;;;;;5089281;28;20468;-69
2022/11/21 12:27:58;;;;;;;10.10;4.73;;;;;;;;;;5086129;28;20550;-69
2022/11/21 12:30:34;;;;;;;16.33;6.07;;;;;;;;;;5081912;28;20526;-70
2022/11/21 12:33:04;;;;;;;8.03;5.40;;;;;;;;;;5086119;28;20495;-69
2022/11/21 12:35:44;;;;;;;8.20;5.30;;;;;;;;;;5080424;28;20562;-70
2022/11/21 12:38:21;;;;;;;8.60;4.50;;;;;;;;;;5085453;28;20467;-69
2022/11/21 12:40:56;;;;;;;6.93;4.77;;;;;;;;;;5080804;28;20475;-72
2022/11/21 12:43:30;;;;;;;6.50;4.07;;;;;;;;;;5067454;28;20898;-69
2022/11/21 12:46:11;;;;;;;7.47;4.63;;;;;;;;;;5077721;28;20483;-70
2022/11/21 12:54:53;;;;;;;6.63;4.30;;;;;;;;;;5086267;28;20463;-69
2022/11/21 12:57:21;;;;;;;7.30;3.87;;;;;;;;;;5086593;28;20540;-69
2022/11/21 12:59:53;;;;;;;6.60;3.77;;;;;;;;;;5088439;28;20774;-69
2022/11/21 13:02:26;;;;;;;8.13;4.60;;;;;;;;;;5081097;28;20494;-69
2022/11/21 13:04:57;;;;;;;6.70;3.80;;;;;;;;;;5077975;28;21122;-68
2022/11/21 13:07:29;;;;;;;4.37;3.10;;;;;;;;;;5087944;28;20485;-68
2022/11/21 13:10:01;;;;;;;7.83;4.80;;;;;;;;;;5084982;28;20480;-68
2022/11/21 13:12:34;;;;;;;9.87;4.87;;;;;;;;;;5085964;28;20463;-68
2022/11/21 13:15:16;;;;;;;7.90;4.73;;;;;;;;;;5092238;28;20463;-68
2022/11/21 13:17:47;;;;;;;6.93;4.07;;;;;;;;;;5089096;28;20452;-68
2022/11/21 13:20:18;;;;;;;7.83;5.70;;;;;;;;;;5089281;28;20515;-68
2022/11/21 13:22:53;;;;;;;7.33;3.97;;;;;;;;;;5088975;28;20485;-67
2022/11/21 13:25:39;;;;;;;12.50;5.00;;;;;;;;;;5084120;28;20499;-69
2022/11/21 13:28:25;;;;;;;5.77;3.80;;;;;;;;;;5086809;28;20452;-68
2022/11/21 13:33:59;;;;;;;6.23;3.80;;;;;;;;;;5086722;28;20442;-68
2022/11/21 13:36:40;;;;;;;5.63;3.50;;;;;;;;;;5093395;28;20585;-68
2022/11/21 13:39:34;;;;;;;6.30;3.57;;;;;;;;;;5090297;28;20467;-68
2022/11/21 13:45:25;;;;;;;9.00;3.30;;;;;;;;;;5093483;28;20470;-68
2022/11/21 13:48:12;;;;;;;6.53;3.33;;;;;;;;;;5091331;28;20468;-69
2022/11/21 13:51:06;;;;;;;8.53;3.93;;;;;;;;;;5091397;28;20511;-68
2022/11/21 13:53:56;;;;;;;8.47;3.77;;;;;;;;;;5087833;28;20465;-69
2022/11/21 13:56:36;;;;;;;4.53;3.37;;;;;;;;;;5091656;28;20472;-67
2022/11/21 13:59:17;;;;;;;5.43;3.37;;;;;;;;;;5087800;28;20468;-69
2022/11/21 14:02:05;;;;;;;10.20;5.20;;;;;;;;;;5092916;28;20452;-67
2022/11/21 14:04:51;;;;;;;6.50;3.17;;;;;;;;;;5066330;28;20551;-68
2022/11/21 14:07:26;;;;;;;6.03;3.57;;;;;;;;;;5092033;28;20455;-67
2022/11/21 14:09:55;;;;;;;7.53;4.87;;;;;;;;;;5092070;28;20594;-68
2022/11/21 14:12:24;;;;;;;15.30;8.43;;;;;;;;;;5103011;28;20464;-68
2022/11/21 14:14:58;;;;;;;16.27;9.07;;;;;;;;;;5087299;28;20473;-69
2022/11/21 14:17:49;;;;;;;9.10;4.57;;;;;;;;;;5086646;28;20599;-68
2022/11/21 14:20:24;;;;;;;9.20;5.20;;;;;;;;;;5073730;28;20910;-67
2022/11/21 14:23:05;;;;;;;8.77;5.03;;;;;;;;;;5088666;28;20451;-68
2022/11/21 14:25:44;;;;;;;11.00;6.43;;;;;;;;;;5094204;28;20467;-67
2022/11/21 14:28:15;;;;;;;7.27;4.93;;;;;;;;;;5088571;28;20544;-68
2022/11/21 14:30:51;;;;;;;5.30;3.70;;;;;;;;;;5085668;28;20479;-67
2022/11/21 14:33:25;;;;;;;7.07;4.27;;;;;;;;;;5087271;28;20466;-68
2022/11/21 14:36:12;;;;;;;8.43;4.20;;;;;;;;;;5076968;28;20524;-69
2022/11/21 14:39:00;;;;;;;13.70;4.60;;;;;;;;;;5080355;28;20501;-68
2022/11/21 14:41:48;;;;;;;6.07;3.50;;;;;;;;;;5083267;28;20464;-68
2022/11/21 14:44:27;;;;;;;7.87;4.00;;;;;;;;;;5078660;28;20735;-68
2022/11/21 14:47:09;;;;;;;7.00;5.30;;;;;;;;;;5084435;28;20463;-68
2022/11/21 14:49:51;;;;;;;5.40;3.93;;;;;;;;;;5063840;28;21191;-68
2022/11/21 14:52:27;;;;;;;8.10;4.30;;;;;;;;;;5078771;28;20514;-68
2022/11/21 14:54:59;;;;;;;7.60;3.87;;;;;;;;;;5090054;28;20498;-66
2022/11/21 14:57:28;;;;;;;13.23;5.80;;;;;;;;;;5087970;28;20525;-66
2022/11/21 14:59:59;;;;;;;7.33;4.27;;;;;;;;;;5092681;28;20459;-67
2022/11/21 15:02:30;;;;;;;9.33;4.53;;;;;;;;;;5093926;28;20459;-67
2022/11/21 15:05:01;;;;;;;9.63;5.57;;;;;;;;;;5081134;28;20452;-67
2022/11/21 15:07:47;;;;;;;10.20;4.50;;;;;;;;;;5077451;28;20505;-67
2022/11/21 15:10:21;;;;;;;12.13;5.30;;;;;;;;;;5090974;28;20559;-68
2022/11/21 15:12:52;;;;;;;10.43;5.93;;;;;;;;;;5090533;28;20467;-70
2022/11/21 15:15:26;;;;;;;9.40;6.13;;;;;;;;;;5100768;28;20471;-66
2022/11/21 15:17:58;;;;;;;12.90;6.47;;;;;;;;;;5082522;28;20464;-70
2022/11/21 15:20:46;;;;;;;8.80;4.10;;;;;;;;;;5083072;28;20472;-69
2022/11/21 15:23:27;;;;;;;7.00;4.73;;;;;;;;;;5088143;28;20468;-68
2022/11/21 15:25:55;;;;;;;7.77;4.43;;;;;;;;;;5078594;28;20471;-66
2022/11/21 15:28:24;;;;;;;5.30;3.80;;;;;;;;;;5077928;28;20465;-67
2022/11/21 15:31:09;;;;;;;7.23;4.43;;;;;;;;;;5078175;28;20545;-69
2022/11/21 15:33:58;;;;;;;7.27;4.60;;;;;;;;;;5098170;28;20462;-67
2022/11/21 15:36:31;;;;;;;7.60;4.43;;;;;;;;;;5092417;28;20468;-67
2022/11/21 15:39:02;;;;;;;6.27;3.80;;;;;;;;;;5071444;28;20776;-66